Time;durP1;ratioP1;P1;durP2;ratioP2;P2;SDS_P1;SDS_P2;PMS_P1;PMS_P2;Temp;Humidity;BMP_temperature;BMP_pressure;BME280_temperature;BME280_humidity;BME280_pressure;Samples;Min_cycle;Max_cycle;Signal;HPM_P1;HPM_P2
2022/09/09 00:02:23;;;;;;;13.60;2.20;;;;;;;23.09;100.00;101569.31;4818586;29;20464;-92
2022/09/09 00:05:41;;;;;;;8.20;1.70;;;;;;;23.17;100.00;101581.97;4852010;29;21049;-92
2022/09/09 00:08:22;;;;;;;10.67;1.90;;;;;;;23.12;100.00;101579.09;4866361;29;20459;-92
2022/09/09 00:11:10;;;;;;;18.17;2.60;;;;;;;23.11;100.00;101574.63;4852157;29;20455;-92
2022/09/09 00:14:13;;;;;;;8.80;1.80;;;;;;;23.11;100.00;101588.56;4844765;29;20519;-93
2022/09/09 00:17:22;;;;;;;6.77;1.37;;;;;;;23.07;100.00;101587.44;4867011;29;20455;-93
2022/09/09 00:20:26;;;;;;;8.37;1.90;;;;;;;23.08;100.00;101580.75;4866246;29;20451;-91
2022/09/09 00:23:49;;;;;;;14.20;1.83;;;;;;;23.06;100.00;101577.38;4851450;29;20451;-92
2022/09/09 00:26:51;;;;;;;15.30;3.10;;;;;;;23.05;100.00;101584.03;4866169;29;20485;-93
2022/09/09 00:30:00;;;;;;;8.30;2.03;;;;;;;23.03;100.00;101575.94;4849034;29;20474;-93
2022/09/09 00:33:15;;;;;;;10.17;2.30;;;;;;;23.00;100.00;101572.81;4848098;29;20460;-94
2022/09/09 00:36:25;;;;;;;25.13;2.60;;;;;;;23.00;100.00;101575.59;4847952;29;20559;-93
2022/09/09 00:42:46;;;;;;;10.13;1.97;;;;;;;22.89;100.00;101554.25;4881148;29;20446;-93
2022/09/09 00:46:07;;;;;;;10.67;2.50;;;;;;;22.98;100.00;101558.28;4836186;29;20443;-93
2022/09/09 00:49:15;;;;;;;12.50;2.40;;;;;;;22.95;100.00;101550.41;4866079;29;20447;-93
2022/09/09 00:56:05;;;;;;;8.87;2.70;;;;;;;22.92;100.00;101551.78;4863421;29;20534;-93
2022/09/09 00:59:17;;;;;;;18.77;2.63;;;;;;;22.91;100.00;101554.81;4847491;29;20456;-92
2022/09/09 01:02:51;;;;;;;11.37;2.30;;;;;;;22.86;100.00;101546.41;4848048;29;20470;-93
2022/09/09 01:05:43;;;;;;;10.67;2.17;;;;;;;22.81;100.00;101549.94;4788792;30;20464;-93
2022/09/09 01:08:30;;;;;;;13.63;2.57;;;;;;;22.70;100.00;101534.13;4788876;29;20462;-93
2022/09/09 01:11:49;;;;;;;16.70;1.90;;;;;;;22.84;100.00;101545.81;4793993;29;20466;-93
2022/09/09 01:14:42;;;;;;;20.30;3.37;;;;;;;22.79;100.00;101556.88;4776597;29;20931;-92
2022/09/09 01:17:56;;;;;;;6.30;1.80;;;;;;;22.77;100.00;101561.81;4777065;29;20463;-93
2022/09/09 01:21:16;;;;;;;7.97;1.83;;;;;;;22.72;100.00;101557.00;4805927;29;20455;-92
2022/09/09 01:24:37;;;;;;;11.40;2.63;;;;;;;22.66;100.00;101558.88;4806109;29;20906;-93
2022/09/09 01:27:35;;;;;;;8.57;1.70;;;;;;;22.69;100.00;101535.25;4806269;29;20454;-93
2022/09/09 01:30:14;;;;;;;6.50;1.87;;;;;;;22.58;100.00;101533.38;4791003;29;20491;-93
2022/09/09 01:33:18;;;;;;;6.63;1.97;;;;;;;22.54;100.00;101530.25;4762203;29;20455;-92
2022/09/09 01:36:13;;;;;;;13.83;2.50;;;;;;;22.51;100.00;101525.22;4807813;29;20512;-92
2022/09/09 01:42:29;;;;;;;4.40;1.50;;;;;;;22.47;100.00;101512.88;4849543;29;20473;-93
2022/09/09 01:45:27;;;;;;;4.50;1.53;;;;;;;22.50;100.00;101520.72;4843238;29;20464;-93
2022/09/09 01:48:08;;;;;;;6.67;1.70;;;;;;;22.45;100.00;101522.56;4858660;29;20461;-93
2022/09/09 01:50:37;;;;;;;6.20;1.73;;;;;;;22.47;100.00;101521.22;4845410;29;21036;-92
2022/09/09 01:53:21;;;;;;;8.97;2.50;;;;;;;22.31;100.00;101508.16;4831756;29;20451;-93
2022/09/09 01:56:05;;;;;;;8.27;1.70;;;;;;;22.33;100.00;101503.16;4865957;29;20476;-92
2022/09/09 02:02:35;;;;;;;6.67;1.80;;;;;;;22.37;100.00;101504.34;4845307;29;20499;-92
2022/09/09 02:06:11;;;;;;;9.93;2.10;;;;;;;22.38;100.00;101512.44;4889495;29;20997;-92
2022/09/09 02:09:00;;;;;;;6.93;1.57;;;;;;;22.28;100.00;101491.94;4877862;29;20459;-92
2022/09/09 02:11:50;;;;;;;10.37;1.93;;;;;;;22.38;100.00;101512.44;4867308;29;21033;-92
2022/09/09 02:14:40;;;;;;;6.90;1.50;;;;;;;22.44;100.00;101505.03;4878409;29;20580;-91
2022/09/09 02:17:35;;;;;;;9.97;1.70;;;;;;;22.28;100.00;101508.66;4880003;29;20780;-92
2022/09/09 02:20:10;;;;;;;6.97;1.40;;;;;;;22.36;100.00;101514.63;4848891;29;20462;-93
2022/09/09 02:22:55;;;;;;;7.80;1.60;;;;;;;22.34;100.00;101505.69;4865029;29;20506;-93
2022/09/09 02:25:58;;;;;;;10.47;1.90;;;;;;;22.33;100.00;101509.56;4864390;29;20459;-92
2022/09/09 02:36:29;;;;;;;4.03;1.70;;;;;;;22.32;100.00;101504.28;4879670;29;20812;-92
2022/09/09 02:39:29;;;;;;;19.63;2.27;;;;;;;22.31;100.00;101506.22;4880624;29;20461;-92
2022/09/09 02:42:04;;;;;;;9.80;1.60;;;;;;;22.27;100.00;101505.03;4862287;29;20960;-92
2022/09/09 02:44:45;;;;;;;13.63;1.43;;;;;;;22.23;100.00;101486.28;4864019;29;20455;-93
2022/09/09 02:51:10;;;;;;;10.13;1.83;;;;;;;22.30;100.00;101507.31;4861858;29;20499;-91
2022/09/09 02:54:00;;;;;;;13.00;1.73;;;;;;;22.24;100.00;101502.75;4858362;29;20452;-91
2022/09/09 02:56:46;;;;;;;6.03;1.40;;;;;;;22.28;100.00;101512.28;4863662;29;20526;-92
2022/09/09 02:59:47;;;;;;;9.13;1.87;;;;;;;22.27;100.00;101516.16;4864275;29;20492;-93
2022/09/09 03:02:54;;;;;;;16.03;2.40;;;;;;;22.27;100.00;101516.16;4864229;29;20450;-91
2022/09/09 03:06:01;;;;;;;7.87;1.80;;;;;;;22.26;100.00;101508.06;4865567;29;20455;-92
2022/09/09 03:08:49;;;;;;;11.10;1.60;;;;;;;22.28;100.00;101511.44;4848998;29;20463;-92
2022/09/09 03:11:32;;;;;;;7.50;1.53;;;;;;;22.24;100.00;101511.09;4858702;29;20483;-92
2022/09/09 03:14:37;;;;;;;16.13;2.07;;;;;;;22.27;100.00;101523.69;4830397;29;20961;-93
2022/09/09 03:17:30;;;;;;;8.00;1.67;;;;;;;22.22;100.00;101516.06;4846642;29;20452;-92
2022/09/09 03:20:08;;;;;;;11.60;2.90;;;;;;;22.22;100.00;101512.44;4868117;29;20488;-92
2022/09/09 03:22:44;;;;;;;8.17;1.60;;;;;;;22.18;100.00;101519.59;4848793;29;20439;-91
2022/09/09 03:25:18;;;;;;;11.43;2.03;;;;;;;22.07;100.00;101498.25;4863080;29;20459;-93
2022/09/09 03:28:01;;;;;;;8.50;1.77;;;;;;;22.08;100.00;101506.38;4849008;29;20862;-92
2022/09/09 03:30:38;;;;;;;12.80;1.90;;;;;;;22.09;100.00;101505.28;4848381;29;20494;-92
2022/09/09 03:33:12;;;;;;;14.73;2.20;;;;;;;22.02;100.00;101501.78;4851400;29;20454;-92
2022/09/09 03:35:58;;;;;;;8.20;1.47;;;;;;;22.09;100.00;101512.78;4866882;29;20462;-91
2022/09/09 03:38:35;;;;;;;8.43;1.70;;;;;;;21.95;100.00;101507.47;4865599;29;20482;-91
2022/09/09 03:41:14;;;;;;;15.73;2.20;;;;;;;22.08;100.00;101523.06;4837177;29;20524;-91
2022/09/09 03:43:42;;;;;;;16.07;2.10;;;;;;;22.03;100.00;101511.84;4848464;29;20510;-92
2022/09/09 03:46:53;;;;;;;8.80;1.83;;;;;;;22.09;100.00;101521.13;4836820;29;20949;-92
2022/09/09 03:49:38;;;;;;;8.00;2.03;;;;;;;22.08;100.00;101516.66;4864772;29;20455;-92
2022/09/09 03:52:21;;;;;;;9.03;2.30;;;;;;;21.95;100.00;101504.69;4836232;29;20447;-92
2022/09/09 03:54:53;;;;;;;6.70;1.63;;;;;;;21.96;100.00;101500.81;4839229;29;20440;-92
2022/09/09 03:57:37;;;;;;;7.83;1.80;;;;;;;21.99;100.00;101497.53;4845581;29;20551;-92
2022/09/09 04:00:09;;;;;;;11.73;2.20;;;;;;;21.91;100.00;101503.53;4837396;29;20811;-92
2022/09/09 04:02:59;;;;;;;11.77;2.80;;;;;;;21.84;100.00;101488.91;4852697;29;20470;-93
2022/09/09 04:06:18;;;;;;;8.13;1.67;;;;;;;21.98;100.00;101520.91;4847736;29;20447;-92
2022/09/09 04:09:10;;;;;;;9.93;2.17;;;;;;;21.92;100.00;101516.34;4848147;29;20472;-92
2022/09/09 04:11:50;;;;;;;10.23;2.40;;;;;;;21.82;100.00;101496.66;4829371;29;21008;-92
2022/09/09 04:14:28;;;;;;;16.57;2.30;;;;;;;21.88;100.00;101497.63;4826985;29;20463;-92
2022/09/09 04:17:06;;;;;;;6.83;1.63;;;;;;;21.90;100.00;101503.78;4815220;29;20467;-92
2022/09/09 04:19:35;;;;;;;14.37;2.87;;;;;;;21.87;100.00;101507.91;4830181;29;20456;-93
2022/09/09 04:22:10;;;;;;;12.73;2.40;;;;;;;21.83;100.00;101501.13;4840942;29;20504;-93
2022/09/09 04:24:56;;;;;;;9.70;2.60;;;;;;;21.75;100.00;101490.41;4822720;29;21023;-92
2022/09/09 04:27:38;;;;;;;9.40;2.63;;;;;;;21.80;100.00;101492.44;4833271;29;20467;-91
2022/09/09 04:30:39;;;;;;;9.30;2.20;;;;;;;21.81;100.00;101505.25;4817494;29;20504;-91
2022/09/09 04:33:31;;;;;;;5.37;1.90;;;;;;;21.75;100.00;101509.03;4849004;29;20456;-92
2022/09/09 04:36:44;;;;;;;14.17;2.53;;;;;;;21.77;100.00;101516.03;4843652;29;20448;-92
2022/09/09 04:39:17;;;;;;;11.90;2.93;;;;;;;21.69;100.00;101508.13;4828990;29;20456;-92
2022/09/09 04:41:49;;;;;;;10.93;2.40;;;;;;;21.76;100.00;101517.13;4814427;29;20517;-92
2022/09/09 04:45:26;;;;;;;12.33;2.40;;;;;;;21.74;100.00;101519.34;4832948;29;20448;-93
2022/09/09 04:48:10;;;;;;;13.90;2.40;;;;;;;21.71;100.00;101505.94;4828051;29;20456;-93
2022/09/09 04:51:28;;;;;;;8.97;2.00;;;;;;;21.76;100.00;101519.91;4828576;29;20493;-92
2022/09/09 04:54:05;;;;;;;13.97;3.03;;;;;;;21.68;100.00;101512.00;4843444;29;20453;-92
2022/09/09 04:56:59;;;;;;;9.03;2.30;;;;;;;21.74;100.00;101516.56;4828394;29;20517;-93
2022/09/09 04:59:45;;;;;;;10.70;2.30;;;;;;;21.68;100.00;101507.28;4842910;29;20464;-92
2022/09/09 05:02:30;;;;;;;8.50;2.37;;;;;;;21.62;100.00;101504.63;4819831;29;20548;-93
2022/09/09 05:05:05;;;;;;;8.70;2.20;;;;;;;21.60;100.00;101501.25;4831439;29;20505;-93
2022/09/09 05:07:52;;;;;;;13.47;2.60;;;;;;;21.61;100.00;101514.06;4831204;29;20456;-92
2022/09/09 05:10:21;;;;;;;17.50;2.93;;;;;;;21.49;100.00;101507.72;4846264;29;20529;-93
2022/09/09 05:12:57;;;;;;;14.10;2.40;;;;;;;21.44;100.00;101496.47;4815753;29;20453;-92
2022/09/09 05:15:39;;;;;;;8.27;2.30;;;;;;;21.48;100.00;101517.16;4836913;29;20455;-92
2022/09/09 05:18:09;;;;;;;10.60;2.90;;;;;;;21.49;100.00;101516.91;4849912;29;20522;-92
2022/09/09 05:20:42;;;;;;;12.60;2.60;;;;;;;21.46;100.00;101516.53;4833612;29;20455;-92
2022/09/09 05:23:32;;;;;;;7.60;2.83;;;;;;;21.46;100.00;101519.31;4848529;29;20475;-92
2022/09/09 05:26:14;;;;;;;16.00;2.93;;;;;;;21.36;100.00;101520.78;4865449;29;20479;-92
2022/09/09 05:28:50;;;;;;;8.73;2.77;;;;;;;21.34;100.00;101506.31;4833200;29;20858;-92
2022/09/09 05:31:25;;;;;;;10.60;3.20;;;;;;;21.35;100.00;101510.78;4841353;29;20491;-92
2022/09/09 05:33:53;;;;;;;28.60;4.20;;;;;;;21.30;100.00;101507.91;4831970;29;20474;-92
2022/09/09 05:36:33;;;;;;;15.73;3.60;;;;;;;21.35;100.00;101508.00;4835040;29;20452;-92
2022/09/09 05:39:09;;;;;;;16.43;4.33;;;;;;;21.31;100.00;101500.41;4826153;29;20443;-92
2022/09/09 05:41:49;;;;;;;12.37;3.83;;;;;;;21.25;100.00;101499.44;4832424;29;20456;-92
2022/09/09 05:44:33;;;;;;;14.30;3.80;;;;;;;21.19;100.00;101488.41;4865278;29;20462;-92
2022/09/09 05:47:09;;;;;;;14.50;4.97;;;;;;;21.25;100.00;101505.00;4850018;29;20467;-91
2022/09/09 05:50:04;;;;;;;16.40;5.10;;;;;;;21.29;100.00;101524.81;4834818;29;20458;-92
2022/09/09 05:53:31;;;;;;;12.47;5.57;;;;;;;21.25;100.00;101524.47;4864490;29;20450;-90
2022/09/09 06:07:49;;;;;;;15.43;7.30;;;;;;;21.02;100.00;101513.34;4767175;30;20448;-92
2022/09/09 06:11:13;;;;;;;16.70;8.27;;;;;;;21.13;100.00;101543.09;4742780;30;21086;-92
2022/09/09 06:14:41;;;;;;;20.20;8.93;;;;;;;21.01;100.00;101529.19;4736195;30;20452;-92
2022/09/09 06:17:30;;;;;;;21.63;9.97;;;;;;;21.00;100.00;101526.66;4781422;30;20536;-91
2022/09/09 06:31:09;;;;;;;20.00;9.27;;;;;;;21.06;100.00;101520.13;4786922;30;20515;-92
2022/09/09 19:12:25;;;;;;;9.30;2.00;;;;;;;22.32;95.74;101395.66;5380519;23;20500;-92
2022/09/09 21:30:45;;;;;;;2.97;1.53;;;;;;;21.84;100.00;101533.44;4908977;29;20408;-95
2022/09/09 23:54:18;;;;;;;6.63;2.03;;;;;;;21.25;100.00;101476.34;4883261;29;20476;-93
2022/09/09 23:56:56;;;;;;;5.80;2.13;;;;;;;21.30;100.00;101494.00;4884486;29;20454;-94
2022/09/09 23:59:38;;;;;;;7.07;2.00;;;;;;;21.30;100.00;101493.16;4895817;29;20472;-92
